sensor_id;sensor_type;location;lat;lon;timestamp;pressure;altitude;pressure_sealevel;temperature;humidity
68230;BME280;55048;52.220;5.160;2023-02-26T00:01:19;101851.38;;;3.87;62.15
68230;BME280;55048;52.220;5.160;2023-02-26T00:03:53;101863.69;;;4.02;62.22
68230;BME280;55048;52.220;5.160;2023-02-26T00:06:20;101750.03;;;3.27;61.47
68230;BME280;55048;52.220;5.160;2023-02-26T00:08:46;101877.34;;;4.06;60.93
68230;BME280;55048;52.220;5.160;2023-02-26T00:11:12;101855.81;;;3.94;60.71
68230;BME280;55048;52.220;5.160;2023-02-26T00:13:39;101821.13;;;3.82;60.44
68230;BME280;55048;52.220;5.160;2023-02-26T00:18:50;101767.75;;;3.41;59.86
68230;BME280;55048;52.220;5.160;2023-02-26T00:21:17;101778.94;;;3.35;59.06
68230;BME280;55048;52.220;5.160;2023-02-26T00:23:43;101872.78;;;3.83;57.95
68230;BME280;55048;52.220;5.160;2023-02-26T00:26:09;101878.22;;;3.74;57.78
68230;BME280;55048;52.220;5.160;2023-02-26T00:28:35;101894.28;;;4.03;58.40
68230;BME280;55048;52.220;5.160;2023-02-26T00:31:01;101869.50;;;3.65;58.02
68230;BME280;55048;52.220;5.160;2023-02-26T00:33:26;101836.59;;;3.53;57.95
68230;BME280;55048;52.220;5.160;2023-02-26T00:35:55;101907.78;;;3.92;58.42
68230;BME280;55048;52.220;5.160;2023-02-26T00:38:26;101789.78;;;3.16;58.66
68230;BME280;55048;52.220;5.160;2023-02-26T00:40:55;101937.72;;;3.91;58.67
68230;BME280;55048;52.220;5.160;2023-02-26T00:43:24;101839.88;;;3.30;58.79
68230;BME280;55048;52.220;5.160;2023-02-26T00:46:06;101929.03;;;3.82;58.33
68230;BME280;55048;52.220;5.160;2023-02-26T00:51:48;101932.31;;;3.84;58.56
68230;BME280;55048;52.220;5.160;2023-02-26T00:54:20;101939.03;;;3.71;58.27
68230;BME280;55048;52.220;5.160;2023-02-26T00:56:50;101912.88;;;3.53;57.91
68230;BME280;55048;52.220;5.160;2023-02-26T00:59:16;101758.69;;;2.54;57.77
68230;BME280;55048;52.220;5.160;2023-02-26T01:01:43;101947.56;;;3.56;57.72
68230;BME280;55048;52.220;5.160;2023-02-26T01:04:09;101949.38;;;3.56;57.62
68230;BME280;55048;52.220;5.160;2023-02-26T01:06:41;101930.59;;;3.35;57.50
68230;BME280;55048;52.220;5.160;2023-02-26T01:09:09;101948.03;;;3.44;57.36
68230;BME280;55048;52.220;5.160;2023-02-26T01:11:36;101887.28;;;2.88;57.03
68230;BME280;55048;52.220;5.160;2023-02-26T01:14:03;101838.81;;;2.74;57.50
68230;BME280;55048;52.220;5.160;2023-02-26T01:16:33;101753.72;;;1.92;56.86
68230;BME280;55048;52.220;5.160;2023-02-26T01:21:59;101966.59;;;3.34;56.20
68230;BME280;55048;52.220;5.160;2023-02-26T01:24:28;101965.47;;;3.37;56.58
68230;BME280;55048;52.220;5.160;2023-02-26T01:26:55;101912.47;;;3.07;56.64
68230;BME280;55048;52.220;5.160;2023-02-26T01:29:20;101867.72;;;2.74;56.25
68230;BME280;55048;52.220;5.160;2023-02-26T01:31:59;101968.59;;;3.32;55.75
68230;BME280;55048;52.220;5.160;2023-02-26T01:34:35;101857.81;;;2.60;56.15
68230;BME280;55048;52.220;5.160;2023-02-26T01:39:41;101926.56;;;2.98;56.50
68230;BME280;55048;52.220;5.160;2023-02-26T01:42:23;101975.28;;;3.18;56.53
68230;BME280;55048;52.220;5.160;2023-02-26T01:44:57;101998.25;;;3.16;56.30
68230;BME280;55048;52.220;5.160;2023-02-26T01:50:17;101974.59;;;3.08;55.70
68230;BME280;55048;52.220;5.160;2023-02-26T01:53:20;101994.97;;;3.14;56.02
68230;BME280;55048;52.220;5.160;2023-02-26T01:55:50;101926.50;;;2.73;56.06
68230;BME280;55048;52.220;5.160;2023-02-26T01:58:18;101922.88;;;2.66;56.13
68230;BME280;55048;52.220;5.160;2023-02-26T02:00:44;101914.47;;;2.63;56.05
68230;BME280;55048;52.220;5.160;2023-02-26T02:03:10;101963.97;;;2.84;55.83
68230;BME280;55048;52.220;5.160;2023-02-26T02:05:49;101941.38;;;2.65;55.62
68230;BME280;55048;52.220;5.160;2023-02-26T02:08:15;101999.03;;;3.00;55.86
68230;BME280;55048;52.220;5.160;2023-02-26T02:10:43;102004.13;;;3.02;55.94
68230;BME280;55048;52.220;5.160;2023-02-26T02:16:06;101946.75;;;2.55;55.52
68230;BME280;55048;52.220;5.160;2023-02-26T02:18:41;102014.09;;;2.98;55.86
68230;BME280;55048;52.220;5.160;2023-02-26T02:24:22;101989.38;;;2.75;55.56
68230;BME280;55048;52.220;5.160;2023-02-26T02:26:55;102022.81;;;2.91;55.22
68230;BME280;55048;52.220;5.160;2023-02-26T02:34:51;101922.94;;;2.22;54.88
68230;BME280;55048;52.220;5.160;2023-02-26T02:37:44;102020.94;;;2.83;54.98
68230;BME280;55048;52.220;5.160;2023-02-26T02:40:14;102019.47;;;2.80;54.86
68230;BME280;55048;52.220;5.160;2023-02-26T02:42:58;102026.47;;;2.72;54.90
68230;BME280;55048;52.220;5.160;2023-02-26T02:45:33;102002.31;;;2.42;54.47
68230;BME280;55048;52.220;5.160;2023-02-26T02:48:03;102027.28;;;2.72;54.90
68230;BME280;55048;52.220;5.160;2023-02-26T02:50:38;101992.78;;;2.41;54.96
68230;BME280;55048;52.220;5.160;2023-02-26T02:53:39;102043.22;;;2.71;55.12
68230;BME280;55048;52.220;5.160;2023-02-26T02:56:20;102040.25;;;2.74;54.53
68230;BME280;55048;52.220;5.160;2023-02-26T02:58:59;102055.50;;;2.70;54.26
68230;BME280;55048;52.220;5.160;2023-02-26T03:01:27;102058.00;;;2.72;54.92
68230;BME280;55048;52.220;5.160;2023-02-26T03:04:04;101983.94;;;2.16;54.46
68230;BME280;55048;52.220;5.160;2023-02-26T03:06:31;102029.25;;;2.44;54.40
68230;BME280;55048;52.220;5.160;2023-02-26T03:08:59;102030.81;;;2.37;54.64
68230;BME280;55048;52.220;5.160;2023-02-26T03:11:25;102048.50;;;2.53;54.88
68230;BME280;55048;52.220;5.160;2023-02-26T03:13:53;101906.78;;;1.65;54.72
68230;BME280;55048;52.220;5.160;2023-02-26T03:19:29;102039.47;;;2.47;54.57
68230;BME280;55048;52.220;5.160;2023-02-26T03:22:10;102001.78;;;2.13;54.25
68230;BME280;55048;52.220;5.160;2023-02-26T03:25:08;102053.88;;;2.43;54.49
68230;BME280;55048;52.220;5.160;2023-02-26T03:38:28;102081.94;;;2.43;55.02
68230;BME280;55048;52.220;5.160;2023-02-26T03:41:02;101958.25;;;1.48;54.79
68230;BME280;55048;52.220;5.160;2023-02-26T03:43:40;102068.94;;;2.23;54.82
68230;BME280;55048;52.220;5.160;2023-02-26T03:46:12;102093.69;;;2.39;55.04
68230;BME280;55048;52.220;5.160;2023-02-26T03:48:39;102098.13;;;2.38;55.02
68230;BME280;55048;52.220;5.160;2023-02-26T03:51:09;102092.72;;;2.40;55.07
68230;BME280;55048;52.220;5.160;2023-02-26T03:54:09;102096.31;;;2.39;55.14
68230;BME280;55048;52.220;5.160;2023-02-26T03:56:44;101982.03;;;1.65;55.19
68230;BME280;55048;52.220;5.160;2023-02-26T03:59:48;101998.41;;;1.67;55.05
68230;BME280;55048;52.220;5.160;2023-02-26T04:05:22;102111.34;;;2.28;55.50
68230;BME280;55048;52.220;5.160;2023-02-26T04:07:50;102080.34;;;2.14;55.55
68230;BME280;55048;52.220;5.160;2023-02-26T04:10:31;101991.28;;;1.41;55.58
68230;BME280;55048;52.220;5.160;2023-02-26T04:12:59;102125.94;;;2.31;55.47
68230;BME280;55048;52.220;5.160;2023-02-26T04:15:26;102015.28;;;1.64;55.42
68230;BME280;55048;52.220;5.160;2023-02-26T04:17:51;102014.53;;;1.54;55.27
68230;BME280;55048;52.220;5.160;2023-02-26T04:20:17;102068.22;;;1.77;55.16
68230;BME280;55048;52.220;5.160;2023-02-26T04:22:42;102073.97;;;1.81;55.03
68230;BME280;55048;52.220;5.160;2023-02-26T04:25:08;102074.41;;;1.76;55.20
68230;BME280;55048;52.220;5.160;2023-02-26T04:27:34;102075.75;;;1.81;55.76
68230;BME280;55048;52.220;5.160;2023-02-26T04:30:00;102158.19;;;2.23;55.67
68230;BME280;55048;52.220;5.160;2023-02-26T04:32:25;102026.19;;;1.42;55.57
68230;BME280;55048;52.220;5.160;2023-02-26T04:34:51;102153.91;;;2.22;55.46
68230;BME280;55048;52.220;5.160;2023-02-26T04:37:16;102146.81;;;2.15;55.27
68230;BME280;55048;52.220;5.160;2023-02-26T04:39:42;102148.66;;;2.04;55.56
68230;BME280;55048;52.220;5.160;2023-02-26T04:42:09;102111.38;;;1.83;55.62
68230;BME280;55048;52.220;5.160;2023-02-26T04:44:34;102151.38;;;2.13;55.53
68230;BME280;55048;52.220;5.160;2023-02-26T04:47:00;102081.56;;;1.57;55.56
68230;BME280;55048;52.220;5.160;2023-02-26T04:49:26;102101.66;;;1.66;55.76
68230;BME280;55048;52.220;5.160;2023-02-26T04:51:52;102057.53;;;1.34;55.56
68230;BME280;55048;52.220;5.160;2023-02-26T04:54:18;102139.69;;;1.79;55.74
68230;BME280;55048;52.220;5.160;2023-02-26T04:56:43;102110.34;;;1.66;56.00
68230;BME280;55048;52.220;5.160;2023-02-26T04:59:09;102065.00;;;1.28;55.79
68230;BME280;55048;52.220;5.160;2023-02-26T05:01:35;102103.25;;;1.59;55.95
68230;BME280;55048;52.220;5.160;2023-02-26T05:04:03;102177.56;;;1.95;55.97
68230;BME280;55048;52.220;5.160;2023-02-26T05:06:28;102085.94;;;1.38;55.90
68230;BME280;55048;52.220;5.160;2023-02-26T05:08:54;102176.94;;;1.83;56.53
68230;BME280;55048;52.220;5.160;2023-02-26T05:11:19;102186.34;;;1.76;56.23
68230;BME280;55048;52.220;5.160;2023-02-26T05:13:45;102147.94;;;1.57;56.45
68230;BME280;55048;52.220;5.160;2023-02-26T05:16:11;102146.28;;;1.56;56.26
68230;BME280;55048;52.220;5.160;2023-02-26T05:18:36;102196.81;;;1.86;56.51
68230;BME280;55048;52.220;5.160;2023-02-26T05:21:02;102063.88;;;1.04;56.01
68230;BME280;55048;52.220;5.160;2023-02-26T05:23:28;102201.44;;;1.74;56.25
68230;BME280;55048;52.220;5.160;2023-02-26T05:25:55;102206.78;;;1.82;56.45
68230;BME280;55048;52.220;5.160;2023-02-26T05:28:21;102173.34;;;1.57;56.65
68230;BME280;55048;52.220;5.160;2023-02-26T05:30:46;102164.69;;;1.46;56.43
68230;BME280;55048;52.220;5.160;2023-02-26T05:33:12;102132.78;;;1.14;56.68
68230;BME280;55048;52.220;5.160;2023-02-26T05:35:37;102111.72;;;1.06;56.62
68230;BME280;55048;52.220;5.160;2023-02-26T05:38:03;102152.88;;;1.33;56.69
68230;BME280;55048;52.220;5.160;2023-02-26T05:40:29;102000.25;;;0.37;56.99
68230;BME280;55048;52.220;5.160;2023-02-26T05:42:54;102158.41;;;1.20;57.06
68230;BME280;55048;52.220;5.160;2023-02-26T05:45:19;102192.72;;;1.46;57.07
68230;BME280;55048;52.220;5.160;2023-02-26T05:47:45;102171.50;;;1.30;57.25
68230;BME280;55048;52.220;5.160;2023-02-26T05:50:11;102124.16;;;1.04;57.38
68230;BME280;55048;52.220;5.160;2023-02-26T05:52:36;102113.28;;;0.89;57.77
68230;BME280;55048;52.220;5.160;2023-02-26T05:55:02;102199.19;;;1.42;57.58
68230;BME280;55048;52.220;5.160;2023-02-26T05:57:28;102113.56;;;0.86;57.66
68230;BME280;55048;52.220;5.160;2023-02-26T05:59:54;102220.56;;;1.47;57.82
68230;BME280;55048;52.220;5.160;2023-02-26T06:02:19;102227.59;;;1.46;57.54
68230;BME280;55048;52.220;5.160;2023-02-26T06:04:45;102158.19;;;1.04;57.78
68230;BME280;55048;52.220;5.160;2023-02-26T06:07:10;102206.69;;;1.27;58.13
68230;BME280;55048;52.220;5.160;2023-02-26T06:09:35;102126.28;;;0.71;58.21
68230;BME280;55048;52.220;5.160;2023-02-26T06:12:01;102231.94;;;1.28;58.61
68230;BME280;55048;52.220;5.160;2023-02-26T06:14:27;102164.16;;;0.86;58.54
68230;BME280;55048;52.220;5.160;2023-02-26T06:16:52;102279.09;;;1.38;58.81
68230;BME280;55048;52.220;5.160;2023-02-26T06:19:17;102259.94;;;1.18;59.00
68230;BME280;55048;52.220;5.160;2023-02-26T06:21:43;102280.91;;;1.27;59.47
68230;BME280;55048;52.220;5.160;2023-02-26T06:24:08;102210.19;;;0.79;59.48
68230;BME280;55048;52.220;5.160;2023-02-26T06:26:34;102125.75;;;0.19;60.09
68230;BME280;55048;52.220;5.160;2023-02-26T06:28:59;102214.59;;;0.79;60.04
68230;BME280;55048;52.220;5.160;2023-02-26T06:31:25;102284.63;;;1.25;60.11
68230;BME280;55048;52.220;5.160;2023-02-26T06:33:50;102254.16;;;0.85;61.06
68230;BME280;55048;52.220;5.160;2023-02-26T06:36:15;102259.13;;;0.88;60.75
68230;BME280;55048;52.220;5.160;2023-02-26T06:38:41;102062.31;;;-0.43;60.47
68230;BME280;55048;52.220;5.160;2023-02-26T06:41:10;102315.81;;;1.18;60.87
68230;BME280;55048;52.220;5.160;2023-02-26T06:43:35;102320.47;;;1.15;60.80
68230;BME280;55048;52.220;5.160;2023-02-26T06:46:00;102261.88;;;0.77;60.61
68230;BME280;55048;52.220;5.160;2023-02-26T06:48:26;102207.16;;;0.45;60.63
68230;BME280;55048;52.220;5.160;2023-02-26T06:50:52;102335.94;;;1.18;60.84
68230;BME280;55048;52.220;5.160;2023-02-26T06:53:17;102309.72;;;0.98;60.68
68230;BME280;55048;52.220;5.160;2023-02-26T06:55:48;102216.47;;;0.18;61.02
68230;BME280;55048;52.220;5.160;2023-02-26T06:58:14;102280.06;;;0.79;61.14
68230;BME280;55048;52.220;5.160;2023-02-26T07:00:39;102282.28;;;0.83;60.95
68230;BME280;55048;52.220;5.160;2023-02-26T07:03:06;102344.38;;;1.21;60.57
68230;BME280;55048;52.220;5.160;2023-02-26T07:05:32;102359.38;;;1.19;60.70
68230;BME280;55048;52.220;5.160;2023-02-26T07:07:57;102286.97;;;0.80;61.74
68230;BME280;55048;52.220;5.160;2023-02-26T07:10:23;102249.03;;;0.64;60.78
68230;BME280;55048;52.220;5.160;2023-02-26T07:12:50;102313.03;;;1.00;60.92
68230;BME280;55048;52.220;5.160;2023-02-26T07:15:15;102357.06;;;1.36;60.66
68230;BME280;55048;52.220;5.160;2023-02-26T07:17:41;102334.97;;;1.28;60.49
68230;BME280;55048;52.220;5.160;2023-02-26T07:20:07;102360.50;;;1.17;60.34
68230;BME280;55048;52.220;5.160;2023-02-26T07:22:35;102366.81;;;1.43;60.36
68230;BME280;55048;52.220;5.160;2023-02-26T07:25:02;102382.69;;;1.61;60.43
68230;BME280;55048;52.220;5.160;2023-02-26T07:27:27;102301.03;;;0.88;60.22
68230;BME280;55048;52.220;5.160;2023-02-26T07:29:54;102358.28;;;1.51;60.04
68230;BME280;55048;52.220;5.160;2023-02-26T07:32:19;102330.97;;;1.24;59.99
68230;BME280;55048;52.220;5.160;2023-02-26T07:34:45;102394.13;;;1.70;60.57
68230;BME280;55048;52.220;5.160;2023-02-26T07:37:11;102350.41;;;1.61;59.73
68230;BME280;55048;52.220;5.160;2023-02-26T07:39:36;102255.13;;;1.13;59.44
68230;BME280;55048;52.220;5.160;2023-02-26T07:42:01;102317.16;;;1.51;59.20
68230;BME280;55048;52.220;5.160;2023-02-26T07:44:27;102330.22;;;1.71;59.04
68230;BME280;55048;52.220;5.160;2023-02-26T07:46:52;102367.03;;;1.89;58.48
68230;BME280;55048;52.220;5.160;2023-02-26T07:49:18;102387.59;;;2.03;58.48
68230;BME280;55048;52.220;5.160;2023-02-26T07:51:44;102404.69;;;2.17;58.20
68230;BME280;55048;52.220;5.160;2023-02-26T07:54:13;102161.69;;;0.85;58.04
68230;BME280;55048;52.220;5.160;2023-02-26T07:56:39;102367.53;;;2.12;57.88
68230;BME280;55048;52.220;5.160;2023-02-26T07:59:05;102383.50;;;2.28;57.01
68230;BME280;55048;52.220;5.160;2023-02-26T08:01:31;102408.53;;;2.60;57.45
68230;BME280;55048;52.220;5.160;2023-02-26T08:03:56;102352.53;;;2.32;57.19
68230;BME280;55048;52.220;5.160;2023-02-26T08:06:22;102389.94;;;2.43;56.11
68230;BME280;55048;52.220;5.160;2023-02-26T08:08:48;102416.69;;;2.66;56.19
68230;BME280;55048;52.220;5.160;2023-02-26T08:11:13;102419.53;;;2.73;55.85
68230;BME280;55048;52.220;5.160;2023-02-26T08:13:38;102261.72;;;1.84;55.63
68230;BME280;55048;52.220;5.160;2023-02-26T08:16:04;102358.19;;;2.37;55.58
68230;BME280;55048;52.220;5.160;2023-02-26T08:18:29;102393.97;;;2.65;55.66
68230;BME280;55048;52.220;5.160;2023-02-26T08:20:55;102417.88;;;2.72;54.61
68230;BME280;55048;52.220;5.160;2023-02-26T08:23:20;102431.31;;;2.96;55.09
68230;BME280;55048;52.220;5.160;2023-02-26T08:25:46;102394.25;;;2.72;54.85
68230;BME280;55048;52.220;5.160;2023-02-26T08:28:13;102420.03;;;2.86;54.31
68230;BME280;55048;52.220;5.160;2023-02-26T08:30:38;102383.69;;;2.81;54.45
68230;BME280;55048;52.220;5.160;2023-02-26T08:33:04;102308.88;;;2.30;53.95
68230;BME280;55048;52.220;5.160;2023-02-26T08:35:30;102429.66;;;2.95;53.19
68230;BME280;55048;52.220;5.160;2023-02-26T08:37:55;102396.81;;;2.54;53.55
68230;BME280;55048;52.220;5.160;2023-02-26T08:40:21;102332.75;;;2.37;53.03
68230;BME280;55048;52.220;5.160;2023-02-26T08:42:47;102458.34;;;3.06;52.73
68230;BME280;55048;52.220;5.160;2023-02-26T08:45:12;102451.66;;;3.22;52.81
68230;BME280;55048;52.220;5.160;2023-02-26T08:47:38;102395.06;;;2.72;52.10
68230;BME280;55048;52.220;5.160;2023-02-26T08:50:06;102334.94;;;2.42;52.65
68230;BME280;55048;52.220;5.160;2023-02-26T08:52:31;102441.13;;;3.22;52.42
68230;BME280;55048;52.220;5.160;2023-02-26T08:54:58;102438.16;;;3.07;51.41
68230;BME280;55048;52.220;5.160;2023-02-26T08:57:23;102419.09;;;3.05;52.46
68230;BME280;55048;52.220;5.160;2023-02-26T08:59:48;102481.94;;;3.62;52.41
68230;BME280;55048;52.220;5.160;2023-02-26T09:02:14;102498.47;;;3.54;52.10
68230;BME280;55048;52.220;5.160;2023-02-26T09:04:39;102428.84;;;2.95;52.00
68230;BME280;55048;52.220;5.160;2023-02-26T09:07:05;102503.16;;;3.60;51.92
68230;BME280;55048;52.220;5.160;2023-02-26T09:09:30;102445.69;;;3.20;51.76
68230;BME280;55048;52.220;5.160;2023-02-26T09:11:56;102448.16;;;3.21;51.64
68230;BME280;55048;52.220;5.160;2023-02-26T09:14:21;102495.72;;;3.73;51.80
68230;BME280;55048;52.220;5.160;2023-02-26T09:16:46;102445.72;;;3.38;51.44
68230;BME280;55048;52.220;5.160;2023-02-26T09:19:12;102420.53;;;3.35;51.89
68230;BME280;55048;52.220;5.160;2023-02-26T09:21:37;102466.91;;;3.72;51.72
68230;BME280;55048;52.220;5.160;2023-02-26T09:24:03;102437.66;;;3.57;51.57
68230;BME280;55048;52.220;5.160;2023-02-26T09:26:28;102446.84;;;3.53;51.04
68230;BME280;55048;52.220;5.160;2023-02-26T09:28:54;102510.72;;;3.63;50.39
68230;BME280;55048;52.220;5.160;2023-02-26T09:31:19;102459.78;;;3.46;50.36
68230;BME280;55048;52.220;5.160;2023-02-26T09:33:45;102525.63;;;3.90;50.81
68230;BME280;55048;52.220;5.160;2023-02-26T09:36:10;102473.47;;;3.50;50.68
68230;BME280;55048;52.220;5.160;2023-02-26T09:38:36;102509.31;;;3.69;51.09
68230;BME280;55048;52.220;5.160;2023-02-26T09:41:07;102458.09;;;3.63;51.00
68230;BME280;55048;52.220;5.160;2023-02-26T09:49:16;102522.00;;;4.09;50.40
68230;BME280;55048;52.220;5.160;2023-02-26T09:51:46;102544.09;;;4.34;50.08
68230;BME280;55048;52.220;5.160;2023-02-26T09:54:17;102549.31;;;4.26;49.36
68230;BME280;55048;52.220;5.160;2023-02-26T09:56:45;102542.53;;;4.23;49.88
68230;BME280;55048;52.220;5.160;2023-02-26T09:59:11;102501.63;;;4.11;49.76
68230;BME280;55048;52.220;5.160;2023-02-26T10:07:06;102479.31;;;3.97;49.26
68230;BME280;55048;52.220;5.160;2023-02-26T10:12:18;102423.31;;;3.69;49.54
68230;BME280;55048;52.220;5.160;2023-02-26T10:14:57;102566.69;;;4.63;49.96
68230;BME280;55048;52.220;5.160;2023-02-26T10:17:37;102523.69;;;4.36;49.24
68230;BME280;55048;52.220;5.160;2023-02-26T10:20:51;102566.66;;;4.80;49.64
68230;BME280;55048;52.220;5.160;2023-02-26T10:23:27;102553.94;;;4.76;48.97
68230;BME280;55048;52.220;5.160;2023-02-26T10:26:19;102578.25;;;4.70;49.34
68230;BME280;55048;52.220;5.160;2023-02-26T10:39:52;102588.59;;;5.15;48.58
68230;BME280;55048;52.220;5.160;2023-02-26T10:42:24;102579.75;;;4.98;48.18
68230;BME280;55048;52.220;5.160;2023-02-26T10:50:48;102567.66;;;4.88;48.99
68230;BME280;55048;52.220;5.160;2023-02-26T10:53:14;102576.81;;;5.01;48.86
68230;BME280;55048;52.220;5.160;2023-02-26T10:55:46;102574.19;;;5.01;48.94
68230;BME280;55048;52.220;5.160;2023-02-26T10:58:16;102608.63;;;5.34;49.03
68230;BME280;55048;52.220;5.160;2023-02-26T11:00:44;102605.69;;;5.45;49.30
68230;BME280;55048;52.220;5.160;2023-02-26T11:05:44;102616.31;;;5.61;48.80
68230;BME280;55048;52.220;5.160;2023-02-26T11:08:17;102541.50;;;4.94;48.70
68230;BME280;55048;52.220;5.160;2023-02-26T11:10:51;102612.66;;;5.54;49.13
68230;BME280;55048;52.220;5.160;2023-02-26T11:13:17;102579.63;;;5.42;49.06
68230;BME280;55048;52.220;5.160;2023-02-26T11:15:45;102591.41;;;5.22;48.63
68230;BME280;55048;52.220;5.160;2023-02-26T11:18:18;102560.81;;;4.95;48.69
68230;BME280;55048;52.220;5.160;2023-02-26T11:20:46;102533.28;;;4.97;49.46
68230;BME280;55048;52.220;5.160;2023-02-26T11:23:16;102574.28;;;5.18;48.74
68230;BME280;55048;52.220;5.160;2023-02-26T11:25:42;102577.59;;;5.28;49.16
68230;BME280;55048;52.220;5.160;2023-02-26T11:28:42;102593.69;;;5.51;48.95
68230;BME280;55048;52.220;5.160;2023-02-26T11:31:10;102588.75;;;5.56;48.83
68230;BME280;55048;52.220;5.160;2023-02-26T11:33:38;102604.81;;;5.71;48.63
68230;BME280;55048;52.220;5.160;2023-02-26T11:36:10;102553.88;;;5.36;48.51
68230;BME280;55048;52.220;5.160;2023-02-26T11:38:37;102594.25;;;5.71;47.96
68230;BME280;55048;52.220;5.160;2023-02-26T11:41:04;102560.66;;;5.38;48.46
68230;BME280;55048;52.220;5.160;2023-02-26T11:43:38;102607.47;;;5.87;48.63
68230;BME280;55048;52.220;5.160;2023-02-26T11:46:06;102592.53;;;6.04;48.64
68230;BME280;55048;52.220;5.160;2023-02-26T11:48:39;102612.00;;;6.19;48.22
68230;BME280;55048;52.220;5.160;2023-02-26T11:51:06;102505.97;;;5.73;48.25
68230;BME280;55048;52.220;5.160;2023-02-26T11:53:34;102591.22;;;6.24;48.26
68230;BME280;55048;52.220;5.160;2023-02-26T11:56:13;102564.97;;;6.23;48.22
68230;BME280;55048;52.220;5.160;2023-02-26T11:58:42;102481.22;;;5.66;47.80
68230;BME280;55048;52.220;5.160;2023-02-26T12:01:10;102577.50;;;6.53;47.53
68230;BME280;55048;52.220;5.160;2023-02-26T12:03:38;102581.97;;;6.53;47.28
68230;BME280;55048;52.220;5.160;2023-02-26T12:06:08;102577.84;;;6.42;47.07
68230;BME280;55048;52.220;5.160;2023-02-26T12:08:39;102574.22;;;6.35;46.79
68230;BME280;55048;52.220;5.160;2023-02-26T12:44:51;102604.25;;;6.09;46.88
68230;BME280;55048;52.220;5.160;2023-02-26T12:50:20;102594.84;;;6.15;46.96
68230;BME280;55048;52.220;5.160;2023-02-26T12:55:59;102593.03;;;6.64;47.02
68230;BME280;55048;52.220;5.160;2023-02-26T12:58:46;102594.16;;;6.70;46.55
68230;BME280;55048;52.220;5.160;2023-02-26T13:01:29;102600.75;;;6.90;46.39
68230;BME280;55048;52.220;5.160;2023-02-26T13:20:40;102600.13;;;6.64;45.87
68230;BME280;55048;52.220;5.160;2023-02-26T13:23:16;102571.22;;;6.46;46.35
68230;BME280;55048;52.220;5.160;2023-02-26T13:25:55;102589.88;;;6.61;46.18
68230;BME280;55048;52.220;5.160;2023-02-26T13:30:57;102544.00;;;6.21;46.33
68230;BME280;55048;52.220;5.160;2023-02-26T13:33:30;102571.06;;;6.48;46.80
68230;BME280;55048;52.220;5.160;2023-02-26T13:35:56;102586.22;;;6.70;46.45
68230;BME280;55048;52.220;5.160;2023-02-26T13:41:04;102580.44;;;6.75;46.63
68230;BME280;55048;52.220;5.160;2023-02-26T13:51:36;102576.78;;;6.92;45.55
68230;BME280;55048;52.220;5.160;2023-02-26T13:54:31;102584.38;;;6.95;45.55
68230;BME280;55048;52.220;5.160;2023-02-26T14:00:00;102576.06;;;7.06;44.81
68230;BME280;55048;52.220;5.160;2023-02-26T14:02:54;102572.06;;;7.19;44.99
68230;BME280;55048;52.220;5.160;2023-02-26T14:05:31;102566.13;;;7.08;44.77
68230;BME280;55048;52.220;5.160;2023-02-26T14:10:58;102574.97;;;7.32;45.27
68230;BME280;55048;52.220;5.160;2023-02-26T14:13:34;102571.28;;;7.41;45.77
68230;BME280;55048;52.220;5.160;2023-02-26T14:16:11;102580.38;;;7.47;45.50
68230;BME280;55048;52.220;5.160;2023-02-26T14:23:51;102567.63;;;7.11;43.74
68230;BME280;55048;52.220;5.160;2023-02-26T14:26:20;102579.72;;;7.05;43.76
68230;BME280;55048;52.220;5.160;2023-02-26T14:28:56;102585.00;;;7.13;44.13
68230;BME280;55048;52.220;5.160;2023-02-26T14:31:25;102519.63;;;6.75;43.47
68230;BME280;55048;52.220;5.160;2023-02-26T14:34:14;102578.94;;;7.36;44.59
68230;BME280;55048;52.220;5.160;2023-02-26T14:36:50;102578.88;;;7.52;45.05
68230;BME280;55048;52.220;5.160;2023-02-26T14:39:26;102568.13;;;7.06;46.43
68230;BME280;55048;52.220;5.160;2023-02-26T14:41:57;102569.47;;;6.94;47.12
68230;BME280;55048;52.220;5.160;2023-02-26T14:44:30;102560.44;;;6.80;47.52
68230;BME280;55048;52.220;5.160;2023-02-26T14:46:59;102554.81;;;6.75;47.10
68230;BME280;55048;52.220;5.160;2023-02-26T14:49:29;102590.13;;;6.99;47.46
68230;BME280;55048;52.220;5.160;2023-02-26T14:55:43;102591.94;;;7.06;45.83
68230;BME280;55048;52.220;5.160;2023-02-26T15:03:57;102596.97;;;6.77;47.13
68230;BME280;55048;52.220;5.160;2023-02-26T15:15:06;102595.31;;;6.84;46.66
68230;BME280;55048;52.220;5.160;2023-02-26T15:17:46;102589.69;;;6.87;45.28
68230;BME280;55048;52.220;5.160;2023-02-26T15:25:28;102590.56;;;6.63;45.16
68230;BME280;55048;52.220;5.160;2023-02-26T15:27:55;102591.38;;;6.72;45.04
68230;BME280;55048;52.220;5.160;2023-02-26T15:30:21;102605.38;;;6.97;45.00
68230;BME280;55048;52.220;5.160;2023-02-26T15:32:47;102599.75;;;6.92;45.15
68230;BME280;55048;52.220;5.160;2023-02-26T15:35:19;102599.09;;;6.89;45.87
68230;BME280;55048;52.220;5.160;2023-02-26T15:37:58;102604.06;;;6.84;47.04
68230;BME280;55048;52.220;5.160;2023-02-26T15:40:29;102516.41;;;6.32;47.32
68230;BME280;55048;52.220;5.160;2023-02-26T15:42:56;102590.19;;;6.74;47.82
68230;BME280;55048;52.220;5.160;2023-02-26T15:45:40;102614.13;;;6.97;48.13
68230;BME280;55048;52.220;5.160;2023-02-26T15:48:10;102611.78;;;7.02;48.10
68230;BME280;55048;52.220;5.160;2023-02-26T15:50:45;102592.50;;;6.85;48.10
68230;BME280;55048;52.220;5.160;2023-02-26T15:53:58;102576.97;;;6.74;47.77
68230;BME280;55048;52.220;5.160;2023-02-26T15:56:12;102609.03;;;6.79;47.20
68230;BME280;55048;52.220;5.160;2023-02-26T15:58:47;102579.63;;;6.66;46.41
68230;BME280;55048;52.220;5.160;2023-02-26T16:01:20;102608.38;;;6.85;46.11
68230;BME280;55048;52.220;5.160;2023-02-26T16:03:49;102583.25;;;6.73;46.13
68230;BME280;55048;52.220;5.160;2023-02-26T16:06:19;102626.19;;;7.00;46.35
68230;BME280;55048;52.220;5.160;2023-02-26T16:08:44;102623.22;;;6.95;46.24
68230;BME280;55048;52.220;5.160;2023-02-26T16:11:11;102602.91;;;6.71;47.03
68230;BME280;55048;52.220;5.160;2023-02-26T16:13:40;102582.13;;;6.51;47.67